createdAt,value
2023-07-17T00:01:11.110Z,19.66
2023-07-17T00:02:11.102Z,19.69
2023-07-17T00:04:15.588Z,19.69
2023-07-17T00:05:15.149Z,19.68
2023-07-17T00:07:08.372Z,19.69
2023-07-17T00:08:08.388Z,19.66
2023-07-17T00:10:12.914Z,19.65
2023-07-17T00:11:12.447Z,19.68
2023-07-17T00:13:16.476Z,19.66
2023-07-17T00:14:16.492Z,19.56
2023-07-17T00:16:21.028Z,19.61
2023-07-17T00:17:20.584Z,19.48
2023-07-17T00:19:24.606Z,19.48
2023-07-17T00:20:24.622Z,19.46
2023-07-17T00:22:18.093Z,19.40
2023-07-17T00:23:17.619Z,19.37
2023-07-17T00:25:21.619Z,19.29
2023-07-17T00:26:21.631Z,19.36
2023-07-17T00:28:26.122Z,19.31
2023-07-17T00:29:25.703Z,19.31
2023-07-17T00:31:29.738Z,19.31
2023-07-17T00:32:29.743Z,19.32
2023-07-17T00:34:34.236Z,19.28
2023-07-17T00:35:33.793Z,19.26
2023-07-17T00:37:37.829Z,19.23
2023-07-17T00:38:37.848Z,19.23
2023-07-17T00:40:31.324Z,19.25
2023-07-17T00:41:31.016Z,19.26
2023-07-17T00:43:35.041Z,19.19
2023-07-17T00:44:35.089Z,19.18
2023-07-17T00:46:39.593Z,19.08
2023-07-17T00:47:39.170Z,19.07
2023-07-17T00:49:43.144Z,18.92
2023-07-17T00:50:43.164Z,19.02
2023-07-17T00:51:43.190Z,18.98
2023-07-17T00:52:43.244Z,18.99
2023-07-17T00:53:43.242Z,19.02
2023-07-17T00:54:43.270Z,19.04
2023-07-17T00:55:43.297Z,18.95
2023-07-17T00:56:43.345Z,19.07
2023-07-17T00:57:43.352Z,19.04
2023-07-17T00:58:43.384Z,19.06
2023-07-17T00:59:43.431Z,18.98
2023-07-17T01:00:43.482Z,18.99
2023-07-17T01:01:43.475Z,19.06
2023-07-17T01:02:43.645Z,19.07
2023-07-17T01:03:43.518Z,19.08
2023-07-17T01:04:43.548Z,19.10
2023-07-17T01:05:43.574Z,19.16
2023-07-17T01:06:43.604Z,19.14
2023-07-17T01:07:43.629Z,19.18
2023-07-17T01:08:43.653Z,19.21
2023-07-17T01:09:43.687Z,19.26
2023-07-17T01:10:43.711Z,19.19
2023-07-17T01:11:43.741Z,19.23
2023-07-17T01:12:43.765Z,19.23
2023-07-17T01:13:43.806Z,19.25
2023-07-17T01:14:43.841Z,19.21
2023-07-17T01:15:43.882Z,19.25
2023-07-17T01:16:43.957Z,19.19
2023-07-17T01:17:43.957Z,19.21
2023-07-17T01:18:43.974Z,19.25
2023-07-17T01:19:43.981Z,19.26
2023-07-17T01:20:43.993Z,19.23
2023-07-17T01:21:44.036Z,19.23
2023-07-17T01:22:44.088Z,19.25
2023-07-17T01:23:44.079Z,19.23
2023-07-17T01:24:44.102Z,19.29
2023-07-17T01:25:44.216Z,19.26
2023-07-17T01:26:44.152Z,19.36
2023-07-17T01:27:44.183Z,19.32
2023-07-17T01:28:44.212Z,19.26
2023-07-17T01:29:44.250Z,19.28
2023-07-17T01:30:44.308Z,19.36
2023-07-17T01:31:44.311Z,19.29
2023-07-17T01:32:44.391Z,19.32
2023-07-17T01:33:44.370Z,19.31
2023-07-17T01:34:44.393Z,19.33
2023-07-17T01:35:44.420Z,19.23
2023-07-17T01:36:44.435Z,19.28
2023-07-17T01:37:44.468Z,19.31
2023-07-17T01:38:44.487Z,19.29
2023-07-17T01:39:44.522Z,19.41
2023-07-17T01:40:44.543Z,19.28
2023-07-17T01:41:44.576Z,19.32
2023-07-17T01:42:44.605Z,19.32
2023-07-17T01:43:44.630Z,19.28
2023-07-17T01:44:44.654Z,19.26
2023-07-17T01:45:44.681Z,19.28
2023-07-17T01:46:44.765Z,19.28
2023-07-17T01:47:44.779Z,19.25
2023-07-17T01:48:44.779Z,19.16
2023-07-17T01:49:44.795Z,19.14
2023-07-17T01:50:44.833Z,19.10
2023-07-17T01:51:44.868Z,19.00
2023-07-17T01:52:44.888Z,19.00
2023-07-17T01:53:44.911Z,18.85
2023-07-17T01:54:44.936Z,18.90
2023-07-17T01:55:44.960Z,18.87
2023-07-17T01:56:45.000Z,18.80
2023-07-17T01:57:45.025Z,18.76
2023-07-17T01:58:45.043Z,18.80
2023-07-17T01:59:45.070Z,18.75
2023-07-17T02:00:45.115Z,18.69
2023-07-17T02:01:45.250Z,18.72
2023-07-17T02:02:45.197Z,18.75
2023-07-17T02:03:45.199Z,18.63
2023-07-17T02:04:45.250Z,18.72
2023-07-17T02:05:45.236Z,18.57
2023-07-17T02:06:45.271Z,18.57
2023-07-17T02:07:45.291Z,18.67
2023-07-17T02:08:45.325Z,18.57
2023-07-17T02:09:45.362Z,18.58
2023-07-17T02:10:45.372Z,18.62
2023-07-17T02:11:45.406Z,18.58
2023-07-17T02:12:45.435Z,18.63
2023-07-17T02:13:45.463Z,18.58
2023-07-17T02:14:45.486Z,18.62
2023-07-17T02:15:45.514Z,18.57
2023-07-17T02:16:45.569Z,18.63
2023-07-17T02:17:45.596Z,18.72
2023-07-17T02:18:45.603Z,18.62
2023-07-17T02:19:45.621Z,18.62
2023-07-17T02:20:45.650Z,18.58
2023-07-17T02:21:45.675Z,18.69
2023-07-17T02:22:45.726Z,18.58
2023-07-17T02:23:45.734Z,18.63
2023-07-17T02:24:45.765Z,18.54
2023-07-17T02:25:45.796Z,18.67
2023-07-17T02:26:45.819Z,18.66
2023-07-17T02:27:45.841Z,18.72
2023-07-17T02:28:45.866Z,18.65
2023-07-17T02:29:45.894Z,18.55
2023-07-17T02:30:45.923Z,18.75
2023-07-17T02:31:45.957Z,18.65
2023-07-17T02:32:45.997Z,18.72
2023-07-17T02:33:46.005Z,18.72
2023-07-17T02:34:46.035Z,18.65
2023-07-17T02:35:46.060Z,18.69
2023-07-17T02:36:46.085Z,18.63
2023-07-17T02:37:46.132Z,18.70
2023-07-17T02:38:46.141Z,18.69
2023-07-17T02:39:46.180Z,18.67
2023-07-17T02:40:46.211Z,18.66
2023-07-17T02:41:46.224Z,18.70
2023-07-17T02:42:46.250Z,18.72
2023-07-17T02:43:46.290Z,18.75
2023-07-17T02:44:46.314Z,18.60
2023-07-17T02:45:46.363Z,18.67
2023-07-17T02:46:46.363Z,18.62
2023-07-17T02:47:46.443Z,18.69
2023-07-17T02:48:46.415Z,18.66
2023-07-17T02:49:46.450Z,18.73
2023-07-17T02:50:46.477Z,18.70
2023-07-17T02:51:46.534Z,18.65
2023-07-17T02:52:46.543Z,18.70
2023-07-17T02:53:46.564Z,18.60
2023-07-17T02:54:46.602Z,18.62
2023-07-17T02:55:46.606Z,18.62
2023-07-17T02:56:46.635Z,18.57
2023-07-17T02:57:46.667Z,18.51
2023-07-17T02:58:46.690Z,18.58
2023-07-17T02:59:46.717Z,18.51
2023-07-17T03:00:46.756Z,18.52
2023-07-17T03:01:46.839Z,18.57
2023-07-17T03:02:46.859Z,18.50
2023-07-17T03:03:46.851Z,18.45
2023-07-17T03:04:46.854Z,18.50
2023-07-17T03:05:47.046Z,18.51
2023-07-17T03:06:46.908Z,18.51
2023-07-17T03:07:46.935Z,18.50
2023-07-17T03:08:46.965Z,18.41
2023-07-17T03:09:48.372Z,18.42
2023-07-17T03:10:47.022Z,18.32
2023-07-17T03:11:47.050Z,18.37
2023-07-17T03:12:47.071Z,18.41
2023-07-17T03:13:47.116Z,18.33
2023-07-17T03:14:47.129Z,18.25
2023-07-17T03:15:47.195Z,18.30
2023-07-17T03:16:47.184Z,18.27
2023-07-17T03:17:47.302Z,18.29
2023-07-17T03:18:47.234Z,18.29
2023-07-17T03:19:47.261Z,18.32
2023-07-17T03:20:47.291Z,18.37
2023-07-17T03:21:47.329Z,18.32
2023-07-17T03:22:47.372Z,18.37
2023-07-17T03:23:47.372Z,18.36
2023-07-17T03:24:47.404Z,18.39
2023-07-17T03:25:47.427Z,18.36
2023-07-17T03:26:47.458Z,18.39
2023-07-17T03:27:47.489Z,18.39
2023-07-17T03:28:47.523Z,18.39
2023-07-17T03:29:47.535Z,18.36
2023-07-17T03:30:47.581Z,18.41
2023-07-17T03:31:47.639Z,18.41
2023-07-17T03:32:47.696Z,18.45
2023-07-17T03:33:48.205Z,18.45
2023-07-17T03:34:47.672Z,18.47
2023-07-17T03:35:47.703Z,18.44
2023-07-17T03:36:47.730Z,18.47
2023-07-17T03:37:47.758Z,18.45
2023-07-17T03:38:47.784Z,18.45
2023-07-17T03:39:47.807Z,18.44
2023-07-17T03:40:47.841Z,18.41
2023-07-17T03:41:47.860Z,18.44
2023-07-17T03:42:47.915Z,18.44
2023-07-17T03:43:47.929Z,18.47
2023-07-17T03:44:47.946Z,18.51
2023-07-17T03:45:47.975Z,18.47
2023-07-17T03:46:48.125Z,18.50
2023-07-17T03:47:48.057Z,18.51
2023-07-17T03:48:48.063Z,18.47
2023-07-17T03:49:48.082Z,18.51
2023-07-17T03:50:48.120Z,18.52
2023-07-17T03:51:48.143Z,18.51
2023-07-17T03:52:48.170Z,18.52
2023-07-17T03:53:48.204Z,18.58
2023-07-17T03:54:48.222Z,18.52
2023-07-17T03:55:48.249Z,18.51
2023-07-17T03:56:48.287Z,18.55
2023-07-17T03:57:48.305Z,18.52
2023-07-17T03:58:48.343Z,18.52
2023-07-17T03:59:48.365Z,18.70
2023-07-17T04:00:48.421Z,18.50
2023-07-17T04:01:48.459Z,18.65
2023-07-17T04:02:48.474Z,18.57
2023-07-17T04:03:50.963Z,18.62
2023-07-17T04:04:48.501Z,18.70
2023-07-17T04:05:48.535Z,18.60
2023-07-17T04:06:48.557Z,18.67
2023-07-17T04:07:48.609Z,18.55
2023-07-17T04:08:48.603Z,18.51
2023-07-17T04:09:48.633Z,18.51
2023-07-17T04:10:48.657Z,18.58
2023-07-17T04:11:48.696Z,18.55
2023-07-17T04:12:48.720Z,18.60
2023-07-17T04:13:48.743Z,18.60
2023-07-17T04:14:48.770Z,18.63
2023-07-17T04:15:48.802Z,18.52
2023-07-17T04:16:48.882Z,18.55
2023-07-17T04:17:48.896Z,18.67
2023-07-17T04:18:48.885Z,18.63
2023-07-17T04:19:48.903Z,18.69
2023-07-17T04:20:48.931Z,18.67
2023-07-17T04:21:48.956Z,18.66
2023-07-17T04:22:48.995Z,18.76
2023-07-17T04:23:49.042Z,18.76
2023-07-17T04:24:49.063Z,18.78
2023-07-17T04:25:49.068Z,18.87
2023-07-17T04:26:49.096Z,18.84
2023-07-17T04:27:49.125Z,18.82
2023-07-17T04:28:49.157Z,18.88
2023-07-17T04:29:49.174Z,18.85
2023-07-17T04:30:49.271Z,18.92
2023-07-17T04:31:49.245Z,18.95
2023-07-17T04:32:49.337Z,18.92
2023-07-17T04:33:49.280Z,18.95
2023-07-17T04:34:49.312Z,19.00
2023-07-17T04:35:49.347Z,18.98
2023-07-17T04:36:49.370Z,18.98
2023-07-17T04:37:49.406Z,18.98
2023-07-17T04:38:49.451Z,19.02
2023-07-17T04:39:49.465Z,18.99
2023-07-17T04:40:49.488Z,19.00
2023-07-17T04:41:49.512Z,19.02
2023-07-17T04:42:49.541Z,18.99
2023-07-17T04:43:49.564Z,18.99
2023-07-17T04:44:49.593Z,18.99
2023-07-17T04:45:49.624Z,19.00
2023-07-17T04:46:49.720Z,19.04
2023-07-17T04:47:49.705Z,19.04
2023-07-17T04:48:49.699Z,19.07
2023-07-17T04:49:49.727Z,19.10
2023-07-17T04:50:49.768Z,19.13
2023-07-17T04:51:49.790Z,19.18
2023-07-17T04:52:49.820Z,18.95
2023-07-17T04:53:49.871Z,19.19
2023-07-17T04:54:49.899Z,19.23
2023-07-17T04:55:49.978Z,19.39
2023-07-17T04:56:49.919Z,19.48
2023-07-17T04:57:49.962Z,19.50
2023-07-17T04:58:49.978Z,19.54
2023-07-17T04:59:50.025Z,19.56
2023-07-17T05:00:50.155Z,19.62
2023-07-17T05:01:50.073Z,19.54
2023-07-17T05:02:50.222Z,19.58
2023-07-17T05:03:50.187Z,19.62
2023-07-17T05:04:50.159Z,19.58
2023-07-17T05:05:50.227Z,19.51
2023-07-17T05:06:50.203Z,19.54
2023-07-17T05:07:50.238Z,19.47
2023-07-17T05:08:50.260Z,19.51
2023-07-17T05:09:50.288Z,19.55
2023-07-17T05:10:50.321Z,19.50
2023-07-17T05:11:50.344Z,19.46
2023-07-17T05:12:50.373Z,19.39
2023-07-17T05:13:50.400Z,19.33
2023-07-17T05:14:50.433Z,19.43
2023-07-17T05:15:50.455Z,19.37
2023-07-17T05:16:50.575Z,19.37
2023-07-17T05:17:50.565Z,19.39
2023-07-17T05:18:50.552Z,19.32
2023-07-17T05:19:50.579Z,19.29
2023-07-17T05:20:50.595Z,19.31
2023-07-17T05:21:50.625Z,19.29
2023-07-17T05:22:50.724Z,19.29
2023-07-17T05:23:50.685Z,19.28
2023-07-17T05:24:50.710Z,19.48
2023-07-17T05:25:50.737Z,19.68
2023-07-17T05:26:50.763Z,20.11
2023-07-17T05:27:50.788Z,20.59
2023-07-17T05:28:50.844Z,21.24
2023-07-17T05:29:50.854Z,21.80
2023-07-17T05:30:50.899Z,22.24
2023-07-17T05:31:50.908Z,22.64
2023-07-17T05:32:50.971Z,23.16
2023-07-17T05:33:50.970Z,23.60
2023-07-17T05:34:51.027Z,23.97
2023-07-17T05:35:51.027Z,24.40
2023-07-17T05:36:51.053Z,24.60
2023-07-17T05:37:51.079Z,24.87
2023-07-17T05:38:51.110Z,25.21
2023-07-17T05:39:51.142Z,25.36
2023-07-17T05:40:51.174Z,25.69
2023-07-17T05:41:51.215Z,25.94
2023-07-17T05:42:51.269Z,26.10
2023-07-17T05:43:51.277Z,26.28
2023-07-17T05:44:51.304Z,26.51
2023-07-17T05:45:51.333Z,26.70
2023-07-17T05:46:51.413Z,26.89
2023-07-17T05:47:51.437Z,27.07
2023-07-17T05:48:51.428Z,27.17
2023-07-17T05:49:51.461Z,27.36
2023-07-17T05:50:51.496Z,27.32
2023-07-17T05:51:51.534Z,27.39
2023-07-17T05:52:51.592Z,27.47
2023-07-17T05:53:51.593Z,27.54
2023-07-17T05:54:51.625Z,27.63
2023-07-17T05:55:51.658Z,27.63
2023-07-17T05:56:51.693Z,27.79
2023-07-17T05:57:51.736Z,27.82
2023-07-17T05:58:51.763Z,27.93
2023-07-17T05:59:51.797Z,27.94
2023-07-17T06:00:51.830Z,28.02
2023-07-17T06:01:51.908Z,27.94
2023-07-17T06:02:51.956Z,27.81
2023-07-17T06:03:51.988Z,27.79
2023-07-17T06:04:52.018Z,27.66
2023-07-17T06:05:52.002Z,27.66
2023-07-17T06:06:52.047Z,27.66
2023-07-17T06:07:52.081Z,27.70
2023-07-17T06:08:52.101Z,27.66
2023-07-17T06:09:52.138Z,27.79
2023-07-17T06:10:52.219Z,27.93
2023-07-17T06:11:52.206Z,27.84
2023-07-17T06:12:52.247Z,27.72
2023-07-17T06:13:52.277Z,27.70
2023-07-17T06:14:52.320Z,27.62
2023-07-17T06:15:52.360Z,27.72
2023-07-17T06:16:52.442Z,27.66
2023-07-17T06:17:52.443Z,27.79
2023-07-17T06:18:52.458Z,27.94
2023-07-17T06:19:52.487Z,27.88
2023-07-17T06:20:52.524Z,27.50
2023-07-17T06:21:52.588Z,27.37
2023-07-17T06:22:52.656Z,27.25
2023-07-17T06:23:52.626Z,27.17
2023-07-17T06:24:52.666Z,26.97
2023-07-17T06:25:52.701Z,27.00
2023-07-17T06:26:54.755Z,26.97
2023-07-17T06:27:52.769Z,26.95
2023-07-17T06:28:52.804Z,27.00
2023-07-17T06:29:52.849Z,27.02
2023-07-17T06:30:52.878Z,27.04
2023-07-17T06:31:52.977Z,27.02
2023-07-17T06:32:53.109Z,26.94
2023-07-17T06:33:52.983Z,26.77
2023-07-17T06:34:53.012Z,26.63
2023-07-17T06:35:53.056Z,26.57
2023-07-17T06:36:53.106Z,26.23
2023-07-17T06:37:53.123Z,26.10
2023-07-17T06:38:53.167Z,25.99
2023-07-17T06:39:53.196Z,26.07
2023-07-17T06:40:53.228Z,25.95
2023-07-17T06:41:53.268Z,25.91
2023-07-17T06:42:53.306Z,26.07
2023-07-17T06:43:53.339Z,25.99
2023-07-17T06:44:53.379Z,26.02
2023-07-17T06:45:53.423Z,26.06
2023-07-17T06:46:53.504Z,26.07
2023-07-17T06:47:53.562Z,26.09
2023-07-17T06:48:53.521Z,26.15
2023-07-17T06:49:53.550Z,26.12
2023-07-17T06:50:53.597Z,26.25
2023-07-17T06:51:53.619Z,26.36
2023-07-17T06:52:53.661Z,26.57
2023-07-17T06:53:53.690Z,26.77
2023-07-17T06:55:04.034Z,26.87
2023-07-17T06:55:53.766Z,26.88
2023-07-17T06:56:53.802Z,26.80
2023-07-17T06:57:53.832Z,26.54
2023-07-17T06:58:53.889Z,26.33
2023-07-17T06:59:53.908Z,26.17
2023-07-17T07:00:53.941Z,25.88
2023-07-17T07:01:56.971Z,25.72
2023-07-17T07:02:54.028Z,25.75
2023-07-17T07:03:54.080Z,25.72
2023-07-17T07:04:54.084Z,25.85
2023-07-17T07:05:54.124Z,25.92
2023-07-17T07:06:54.157Z,26.12
2023-07-17T07:07:54.200Z,26.21
2023-07-17T07:08:54.235Z,26.39
2023-07-17T07:09:54.278Z,26.51
2023-07-17T07:10:54.316Z,26.62
2023-07-17T07:11:54.338Z,26.76
2023-07-17T07:12:54.377Z,26.91
2023-07-17T07:13:54.417Z,26.88
2023-07-17T07:14:55.267Z,26.87
2023-07-17T07:15:54.531Z,26.80
2023-07-17T07:16:54.572Z,26.81
2023-07-17T07:17:54.628Z,26.69
2023-07-17T07:18:54.592Z,26.45
2023-07-17T07:19:54.642Z,26.18
2023-07-17T07:20:54.679Z,26.07
2023-07-17T07:21:54.715Z,25.90
2023-07-17T07:22:54.801Z,25.70
2023-07-17T07:23:54.777Z,25.60
2023-07-17T07:24:54.809Z,25.54
2023-07-17T07:25:54.855Z,25.38
2023-07-17T07:26:54.900Z,25.43
2023-07-17T07:27:54.921Z,25.51
2023-07-17T07:28:54.954Z,25.38
2023-07-17T07:29:54.994Z,25.28
2023-07-17T07:30:55.033Z,25.20
2023-07-17T07:31:55.150Z,25.09
2023-07-17T07:32:55.125Z,25.03
2023-07-17T07:33:55.137Z,24.93
2023-07-17T07:34:55.174Z,24.80
2023-07-17T07:35:55.209Z,24.76
2023-07-17T07:36:55.246Z,24.58
2023-07-17T07:37:55.297Z,24.53
2023-07-17T07:38:55.318Z,24.53
2023-07-17T07:39:55.344Z,24.39
2023-07-17T07:40:55.383Z,24.18
2023-07-17T07:41:55.413Z,24.21
2023-07-17T07:42:55.449Z,24.10
2023-07-17T07:43:55.479Z,24.05
2023-07-17T07:44:55.512Z,23.93
2023-07-17T07:45:55.582Z,23.85
2023-07-17T07:46:55.594Z,23.76
2023-07-17T07:47:55.618Z,23.69
2023-07-17T07:48:55.643Z,23.55
2023-07-17T07:49:55.672Z,23.46
2023-07-17T07:50:55.705Z,23.39
2023-07-17T07:51:55.748Z,23.43
2023-07-17T07:52:55.776Z,23.48
2023-07-17T07:53:55.798Z,23.43
2023-07-17T07:54:57.660Z,23.32
2023-07-17T07:55:55.866Z,23.17
2023-07-17T07:56:55.909Z,23.32
2023-07-17T07:57:55.934Z,23.42
2023-07-17T07:58:56.095Z,23.50
2023-07-17T07:59:56.001Z,23.63
2023-07-17T08:00:56.034Z,23.65
2023-07-17T08:01:56.069Z,23.55
2023-07-17T08:02:56.232Z,23.60
2023-07-17T08:03:56.148Z,23.61
2023-07-17T08:04:56.147Z,23.48
2023-07-17T08:05:56.189Z,23.46
2023-07-17T08:06:56.211Z,23.19
2023-07-17T08:07:56.237Z,23.25
2023-07-17T08:08:56.271Z,23.28
2023-07-17T08:09:56.316Z,23.31
2023-07-17T08:10:56.346Z,23.39
2023-07-17T08:11:56.365Z,23.50
2023-07-17T08:12:56.414Z,23.53
2023-07-17T08:13:56.440Z,23.53
2023-07-17T08:14:56.524Z,23.51
2023-07-17T08:15:56.525Z,23.43
2023-07-17T08:16:56.521Z,23.13
2023-07-17T08:17:56.602Z,23.04
2023-07-17T08:18:56.585Z,23.04
2023-07-17T08:19:56.618Z,23.01
2023-07-17T08:20:57.236Z,23.04
2023-07-17T08:21:56.679Z,23.17
2023-07-17T08:22:56.786Z,23.31
2023-07-17T08:23:56.737Z,23.33
2023-07-17T08:24:56.769Z,23.42
2023-07-17T08:25:56.848Z,23.23
2023-07-17T08:26:56.951Z,23.28
2023-07-17T08:27:56.903Z,23.12
2023-07-17T08:28:56.895Z,22.91
2023-07-17T08:29:56.937Z,22.90
2023-07-17T08:30:56.992Z,23.00
2023-07-17T08:31:58.467Z,23.07
2023-07-17T08:32:57.040Z,23.12
2023-07-17T08:33:57.051Z,23.15
2023-07-17T08:34:57.074Z,22.95
2023-07-17T08:35:57.134Z,22.95
2023-07-17T08:36:57.140Z,22.98
2023-07-17T08:37:57.168Z,23.05
2023-07-17T08:38:57.191Z,23.05
2023-07-17T08:39:57.235Z,23.04
2023-07-17T08:40:57.262Z,23.12
2023-07-17T08:41:57.287Z,23.20
2023-07-17T08:42:57.316Z,23.38
2023-07-17T08:43:57.351Z,23.48
2023-07-17T08:44:57.390Z,23.43
2023-07-17T08:45:59.588Z,23.53
2023-07-17T08:46:57.494Z,23.55
2023-07-17T08:47:57.513Z,23.60
2023-07-17T08:48:57.500Z,23.69
2023-07-17T08:49:57.534Z,23.73
2023-07-17T08:50:57.558Z,23.72
2023-07-17T08:51:57.616Z,23.63
2023-07-17T08:52:57.620Z,23.76
2023-07-17T08:54:13.369Z,23.80
2023-07-17T08:54:57.683Z,23.79
2023-07-17T08:55:57.712Z,23.83
2023-07-17T08:56:57.741Z,24.06
2023-07-17T08:57:57.785Z,24.06
2023-07-17T08:58:57.801Z,24.00
2023-07-17T08:59:57.838Z,24.03
2023-07-17T09:00:57.885Z,24.05
2023-07-17T09:01:57.898Z,23.98
2023-07-17T09:02:58.190Z,23.95
2023-07-17T09:03:57.956Z,23.93
2023-07-17T09:04:57.994Z,23.97
2023-07-17T09:05:58.021Z,24.00
2023-07-17T09:06:58.059Z,23.97
2023-07-17T09:07:58.085Z,23.85
2023-07-17T09:08:58.116Z,23.63
2023-07-17T09:09:58.146Z,23.58
2023-07-17T09:10:58.178Z,23.54
2023-07-17T09:11:58.251Z,23.57
2023-07-17T09:12:58.253Z,23.65
2023-07-17T09:13:58.273Z,23.61
2023-07-17T09:14:58.305Z,23.68
2023-07-17T09:15:58.334Z,23.58
2023-07-17T09:16:58.389Z,23.48
2023-07-17T09:17:58.448Z,23.58
2023-07-17T09:18:58.561Z,23.69
2023-07-17T09:19:58.450Z,23.80
2023-07-17T09:20:58.483Z,23.97
2023-07-17T09:21:58.531Z,24.00
2023-07-17T09:22:58.614Z,24.15
2023-07-17T09:23:58.581Z,24.22
2023-07-17T09:24:58.609Z,24.42
2023-07-17T09:26:05.786Z,24.43
2023-07-17T09:28:03.150Z,24.58
2023-07-17T09:29:02.685Z,24.64
2023-07-17T09:30:55.875Z,24.50
2023-07-17T09:31:55.862Z,24.45
2023-07-17T09:34:03.362Z,24.24
2023-07-17T09:34:59.911Z,24.00
2023-07-17T09:37:03.953Z,23.68
2023-07-17T09:38:03.971Z,23.58
2023-07-17T09:40:08.489Z,23.68
2023-07-17T09:41:08.034Z,23.94
2023-07-17T09:43:12.071Z,24.32
2023-07-17T09:44:12.078Z,24.50
2023-07-17T09:47:20.603Z,24.95
2023-07-17T09:48:20.126Z,24.96
2023-07-17T09:50:24.338Z,25.17
2023-07-17T09:51:24.182Z,25.24
2023-07-17T09:53:28.691Z,25.57
2023-07-17T09:54:28.239Z,25.64
2023-07-17T09:56:32.283Z,25.80
2023-07-17T09:57:32.302Z,25.95
2023-07-17T09:59:36.810Z,26.28
2023-07-17T10:00:36.373Z,26.09
2023-07-17T10:02:29.361Z,26.09
2023-07-17T10:03:29.376Z,25.97
2023-07-17T10:05:33.846Z,25.92
2023-07-17T10:06:33.427Z,25.88
2023-07-17T10:08:26.572Z,25.88
2023-07-17T10:09:26.588Z,26.06
2023-07-17T10:11:31.105Z,26.09
2023-07-17T10:12:30.661Z,26.06
2023-07-17T10:14:34.688Z,25.64
2023-07-17T10:15:34.711Z,25.45
2023-07-17T10:17:39.284Z,25.20
2023-07-17T10:18:38.772Z,25.09
2023-07-17T10:20:42.889Z,24.69
2023-07-17T10:21:42.831Z,24.62
2023-07-17T10:23:47.346Z,24.53
2023-07-17T10:24:46.903Z,24.53
2023-07-17T10:26:50.929Z,24.47
2023-07-17T10:27:50.953Z,24.43
2023-07-17T10:29:55.461Z,24.40
2023-07-17T10:30:55.060Z,24.27
2023-07-17T10:32:47.996Z,24.20
2023-07-17T10:33:47.984Z,24.25
2023-07-17T10:35:54.040Z,24.30
2023-07-17T10:36:52.039Z,24.35
2023-07-17T10:38:56.070Z,24.55
2023-07-17T10:39:56.092Z,24.61
2023-07-17T10:42:01.111Z,24.60
2023-07-17T10:43:00.147Z,24.60
2023-07-17T10:45:04.180Z,24.53
2023-07-17T10:46:04.273Z,24.45
2023-07-17T10:48:08.776Z,24.57
2023-07-17T10:49:08.257Z,24.57
2023-07-17T10:51:12.300Z,24.61
2023-07-17T10:52:12.323Z,24.58
2023-07-17T10:54:16.830Z,24.78
2023-07-17T10:55:16.412Z,24.95
2023-07-17T10:57:20.422Z,25.14
2023-07-17T10:58:20.433Z,25.38
2023-07-17T11:00:24.940Z,25.58
2023-07-17T11:01:24.501Z,25.67
2023-07-17T11:03:17.661Z,25.91
2023-07-17T11:04:17.711Z,25.94
2023-07-17T11:06:22.183Z,25.91
2023-07-17T11:07:21.725Z,26.13
2023-07-17T11:09:25.761Z,26.12
2023-07-17T11:10:25.781Z,26.15
2023-07-17T11:12:19.287Z,26.25
2023-07-17T11:13:18.755Z,26.29
2023-07-17T11:15:22.794Z,26.50
2023-07-17T11:16:22.803Z,26.43
2023-07-17T11:18:16.423Z,26.55
2023-07-17T11:19:15.992Z,26.67
2023-07-17T11:21:20.300Z,26.73
2023-07-17T11:22:20.081Z,26.69
2023-07-17T11:24:13.542Z,26.63
2023-07-17T11:25:13.222Z,26.54
2023-07-17T11:27:17.258Z,26.63
2023-07-17T11:28:17.290Z,26.58
2023-07-17T11:30:21.793Z,26.43
2023-07-17T11:31:21.562Z,26.45
2023-07-17T11:33:25.376Z,26.47
2023-07-17T11:34:25.399Z,26.45
2023-07-17T11:36:29.911Z,26.44
2023-07-17T11:37:29.459Z,26.47
2023-07-17T11:39:35.076Z,26.40
2023-07-17T11:40:33.515Z,26.44
2023-07-17T11:42:27.026Z,26.57
2023-07-17T11:43:26.492Z,26.66
2023-07-17T11:45:30.525Z,26.60
2023-07-17T11:46:30.642Z,26.65
2023-07-17T11:48:36.570Z,26.60
2023-07-17T11:49:34.604Z,26.48
2023-07-17T11:51:38.640Z,26.43
2023-07-17T11:52:38.673Z,26.33
2023-07-17T11:54:43.179Z,26.33
2023-07-17T11:55:42.715Z,26.40
2023-07-17T11:57:55.529Z,26.55
2023-07-17T11:58:46.780Z,26.51
2023-07-17T12:00:51.779Z,26.62
2023-07-17T12:01:50.896Z,26.81
2023-07-17T12:03:55.255Z,26.89
2023-07-17T12:04:55.071Z,27.02
2023-07-17T12:08:03.575Z,27.29
2023-07-17T12:09:03.135Z,27.34
2023-07-17T12:11:07.163Z,27.32
2023-07-17T12:12:07.183Z,27.40
2023-07-17T12:14:11.699Z,27.17
2023-07-17T12:15:11.237Z,26.91
2023-07-17T12:17:15.275Z,26.73
2023-07-17T12:18:15.315Z,26.73
2023-07-17T12:20:19.815Z,26.62
2023-07-17T12:21:24.262Z,26.63
2023-07-17T12:23:23.412Z,26.35
2023-07-17T12:24:23.426Z,26.20
2023-07-17T12:26:27.938Z,26.06
2023-07-17T12:27:30.383Z,25.92
2023-07-17T12:30:35.543Z,25.69
2023-07-17T12:31:35.572Z,25.52
2023-07-17T12:33:40.037Z,25.42
2023-07-17T12:34:40.435Z,25.30
2023-07-17T12:36:43.625Z,25.27
2023-07-17T12:37:43.649Z,25.28
2023-07-17T12:39:48.159Z,25.40
2023-07-17T12:40:47.707Z,25.43
2023-07-17T12:42:40.661Z,25.32
2023-07-17T12:43:40.685Z,25.21
2023-07-17T12:45:45.713Z,25.02
2023-07-17T12:46:44.739Z,24.95
2023-07-17T12:48:37.982Z,24.78
2023-07-17T12:49:37.919Z,24.71
2023-07-17T12:51:42.424Z,24.84
2023-07-17T12:52:41.972Z,24.85
2023-07-17T12:54:35.133Z,24.96
2023-07-17T12:55:35.168Z,24.81
2023-07-17T12:57:42.375Z,24.90
2023-07-17T12:58:39.209Z,24.83
2023-07-17T13:00:32.408Z,24.71
2023-07-17T13:01:32.417Z,24.62
2023-07-17T13:03:37.015Z,24.55
2023-07-17T13:04:36.680Z,24.53
2023-07-17T13:06:40.478Z,24.65
2023-07-17T13:07:40.492Z,24.64
2023-07-17T13:09:46.500Z,24.81
2023-07-17T13:10:44.550Z,24.85
2023-07-17T13:12:47.818Z,25.02
2023-07-17T13:13:37.525Z,25.18
2023-07-17T13:15:42.056Z,25.02
2023-07-17T13:16:41.578Z,25.02
2023-07-17T13:18:34.813Z,25.30
2023-07-17T13:19:34.759Z,25.33
2023-07-17T13:21:28.260Z,25.52
2023-07-17T13:22:27.952Z,25.62
2023-07-17T13:24:31.987Z,25.87
2023-07-17T13:25:32.000Z,25.92
2023-07-17T13:27:36.508Z,25.83
2023-07-17T13:28:36.055Z,25.80
2023-07-17T13:30:40.092Z,25.47
2023-07-17T13:31:40.195Z,25.39
2023-07-17T13:33:44.617Z,25.47
2023-07-17T13:34:44.164Z,25.43
2023-07-17T13:36:48.204Z,25.69
2023-07-17T13:37:48.271Z,25.75
2023-07-17T13:39:52.746Z,25.75
2023-07-17T13:40:52.286Z,25.95
2023-07-17T13:42:45.235Z,26.25
2023-07-17T13:43:45.250Z,26.36
2023-07-17T13:45:38.755Z,26.45
2023-07-17T13:46:38.497Z,26.45
2023-07-17T13:48:42.466Z,26.67
2023-07-17T13:49:42.490Z,26.76
2023-07-17T13:51:46.993Z,27.10
2023-07-17T13:52:46.543Z,27.18
2023-07-17T13:54:50.582Z,27.34
2023-07-17T13:55:50.598Z,27.37
2023-07-17T13:57:55.113Z,27.57
2023-07-17T13:58:54.657Z,27.54
2023-07-17T14:00:58.701Z,27.03
2023-07-17T14:01:58.788Z,27.00
2023-07-17T14:04:03.403Z,26.88
2023-07-17T14:05:02.783Z,26.94
2023-07-17T14:07:06.828Z,26.76
2023-07-17T14:08:06.848Z,26.80
2023-07-17T14:10:11.344Z,26.82
2023-07-17T14:11:10.900Z,26.95
2023-07-17T14:13:14.928Z,27.24
2023-07-17T14:14:15.026Z,27.22
2023-07-17T14:16:19.667Z,27.21
2023-07-17T14:17:19.008Z,27.17
2023-07-17T14:19:23.960Z,27.03
2023-07-17T14:20:23.076Z,27.00
2023-07-17T14:22:16.556Z,26.97
2023-07-17T14:23:16.092Z,26.94
2023-07-17T14:25:20.078Z,26.87
2023-07-17T14:26:20.584Z,26.84
2023-07-17T14:29:28.616Z,26.54
2023-07-17T14:30:28.144Z,26.63
2023-07-17T14:32:21.103Z,26.51
2023-07-17T14:33:21.131Z,26.28
2023-07-17T14:35:25.638Z,26.13
2023-07-17T14:36:25.178Z,26.05
2023-07-17T14:38:29.210Z,26.06
2023-07-17T14:39:29.235Z,25.98
2023-07-17T14:41:33.973Z,25.95
2023-07-17T14:42:33.337Z,25.91
2023-07-17T14:44:37.345Z,25.94
2023-07-17T14:45:37.354Z,26.05
2023-07-17T14:47:41.902Z,25.95
2023-07-17T14:48:41.412Z,25.95
2023-07-17T14:50:45.444Z,26.09
2023-07-17T14:51:45.459Z,25.94
2023-07-17T14:53:50.011Z,25.94
2023-07-17T14:54:49.515Z,26.15
2023-07-17T14:56:53.554Z,25.97
2023-07-17T14:57:53.597Z,25.99
2023-07-17T14:59:58.102Z,26.10
2023-07-17T15:00:57.685Z,26.09
2023-07-17T15:02:50.656Z,26.09
2023-07-17T15:03:50.631Z,26.06
2023-07-17T15:05:55.120Z,25.94
2023-07-17T15:06:54.665Z,25.95
2023-07-17T15:08:58.712Z,25.92
2023-07-17T15:09:58.718Z,25.92